< < Back
Terminal Aerodrome Forecast


Current Version              Previous Versions:   1  2  3  4  5  6  7  8  9  

Terminal Aerodrome Forecast

455
FTUS42 KILM 281720
TAFILM
TAF
KILM 281720Z 2818/2918 07011G16KT P6SM VCSH SCT030
      TEMPO 2819/2823 3SM SHRA BKN024
     FM282300 08009KT 5SM SHRA OVC030
     FM290400 08007KT P6SM VCSH BKN040=



Latest METAR

335
SAUS70 KWBC 290700 RRL
MTRILM
METAR KILM 290653Z AUTO 05007KT 10SM -RA FEW055 22/22 A3003 RMK AO2
RAB45 SLP169 P0000 T02220217


USA.gov is the U.S. government's official web portal to all federal, state and local government web resources and services.